sensor_id;sensor_type;location;lat;lon;timestamp;pressure;altitude;pressure_sealevel;temperature;humidity
16016;BME280;8112;53.592;10.184;2023-04-06T00:03:17;101682.00;;;1.62;100.00
16016;BME280;8112;53.592;10.184;2023-04-06T00:08:19;101674.34;;;1.40;100.00
16016;BME280;8112;53.592;10.184;2023-04-06T00:13:21;101658.75;;;1.40;100.00
16016;BME280;8112;53.592;10.184;2023-04-06T00:18:25;101669.91;;;1.58;100.00
16016;BME280;8112;53.592;10.184;2023-04-06T00:23:27;101662.06;;;1.64;100.00
16016;BME280;8112;53.592;10.184;2023-04-06T00:28:28;101659.53;;;1.59;100.00
16016;BME280;8112;53.592;10.184;2023-04-06T00:33:32;101658.69;;;1.55;100.00
16016;BME280;8112;53.592;10.184;2023-04-06T00:38:34;101658.63;;;1.62;100.00
16016;BME280;8112;53.592;10.184;2023-04-06T00:43:36;101641.38;;;1.56;100.00
16016;BME280;8112;53.592;10.184;2023-04-06T00:48:40;101653.47;;;1.59;100.00
16016;BME280;8112;53.592;10.184;2023-04-06T00:53:42;101645.66;;;1.59;100.00
16016;BME280;8112;53.592;10.184;2023-04-06T00:58:45;101644.81;;;1.58;100.00
16016;BME280;8112;53.592;10.184;2023-04-06T01:03:49;101635.38;;;1.45;100.00
16016;BME280;8112;53.592;10.184;2023-04-06T01:08:52;101628.50;;;1.37;100.00
16016;BME280;8112;53.592;10.184;2023-04-06T01:13:56;101642.34;;;1.38;100.00
16016;BME280;8112;53.592;10.184;2023-04-06T01:19:09;101633.72;;;1.33;100.00
16016;BME280;8112;53.592;10.184;2023-04-06T01:24:15;101625.91;;;1.36;100.00
16016;BME280;8112;53.592;10.184;2023-04-06T01:29:49;101619.00;;;1.32;100.00
16016;BME280;8112;53.592;10.184;2023-04-06T01:35:03;101622.59;;;1.12;100.00
16016;BME280;8112;53.592;10.184;2023-04-06T01:40:11;101619.06;;;1.18;100.00
16016;BME280;8112;53.592;10.184;2023-04-06T01:45:24;101616.44;;;1.22;100.00
16016;BME280;8112;53.592;10.184;2023-04-06T01:50:31;101613.72;;;1.41;100.00
16016;BME280;8112;53.592;10.184;2023-04-06T01:55:35;101615.44;;;1.48;100.00
16016;BME280;8112;53.592;10.184;2023-04-06T02:01:00;101606.75;;;1.46;100.00
16016;BME280;8112;53.592;10.184;2023-04-06T02:06:08;101605.06;;;1.42;100.00
16016;BME280;8112;53.592;10.184;2023-04-06T02:11:15;101603.38;;;1.38;100.00
16016;BME280;8112;53.592;10.184;2023-04-06T02:16:21;101600.81;;;1.30;100.00
16016;BME280;8112;53.592;10.184;2023-04-06T02:21:24;101597.41;;;1.23;100.00
16016;BME280;8112;53.592;10.184;2023-04-06T02:26:27;101592.25;;;1.17;100.00
16016;BME280;8112;53.592;10.184;2023-04-06T02:31:29;101596.56;;;1.17;100.00
16016;BME280;8112;53.592;10.184;2023-04-06T02:36:30;101590.56;;;1.07;100.00
16016;BME280;8112;53.592;10.184;2023-04-06T02:41:34;101595.84;;;0.93;100.00
16016;BME280;8112;53.592;10.184;2023-04-06T02:46:37;101589.81;;;0.86;100.00
16016;BME280;8112;53.592;10.184;2023-04-06T02:51:39;101594.19;;;0.82;100.00
16016;BME280;8112;53.592;10.184;2023-04-06T02:56:54;101601.97;;;0.82;100.00
16016;BME280;8112;53.592;10.184;2023-04-06T03:02:05;101597.56;;;0.89;100.00
16016;BME280;8112;53.592;10.184;2023-04-06T03:07:08;101594.97;;;0.89;100.00
16016;BME280;8112;53.592;10.184;2023-04-06T03:12:14;101599.31;;;0.90;100.00
16016;BME280;8112;53.592;10.184;2023-04-06T03:17:35;101604.53;;;0.85;100.00
16016;BME280;8112;53.592;10.184;2023-04-06T03:22:41;101605.41;;;0.80;100.00
16016;BME280;8112;53.592;10.184;2023-04-06T03:27:48;101605.44;;;0.77;100.00
16016;BME280;8112;53.592;10.184;2023-04-06T03:32:53;101605.47;;;0.64;100.00
16016;BME280;8112;53.592;10.184;2023-04-06T03:37:57;101610.69;;;0.58;100.00
16016;BME280;8112;53.592;10.184;2023-04-06T03:43:02;101602.91;;;0.52;100.00
16016;BME280;8112;53.592;10.184;2023-04-06T03:48:07;101605.47;;;0.64;100.00
16016;BME280;8112;53.592;10.184;2023-04-06T03:53:11;101604.59;;;0.64;100.00
16016;BME280;8112;53.592;10.184;2023-04-06T03:58:14;101610.66;;;0.64;100.00
16016;BME280;8112;53.592;10.184;2023-04-06T04:03:16;101608.94;;;0.60;100.00
16016;BME280;8112;53.592;10.184;2023-04-06T04:08:18;101608.91;;;0.66;100.00
16016;BME280;8112;53.592;10.184;2023-04-06T04:13:24;101614.16;;;0.60;100.00
16016;BME280;8112;53.592;10.184;2023-04-06T04:18:26;101623.69;;;0.55;100.00
16016;BME280;8112;53.592;10.184;2023-04-06T04:23:28;101621.06;;;0.53;100.00
16016;BME280;8112;53.592;10.184;2023-04-06T04:28:31;101622.81;;;0.42;100.00
16016;BME280;8112;53.592;10.184;2023-04-06T04:33:33;101621.97;;;0.45;100.00
16016;BME280;8112;53.592;10.184;2023-04-06T04:38:38;101618.47;;;0.52;100.00
16016;BME280;8112;53.592;10.184;2023-04-06T04:43:42;101621.94;;;0.57;100.00
16016;BME280;8112;53.592;10.184;2023-04-06T04:48:45;101619.34;;;0.55;100.00
16016;BME280;8112;53.592;10.184;2023-04-06T04:53:48;101624.50;;;0.59;100.00
16016;BME280;8112;53.592;10.184;2023-04-06T04:58:56;101625.41;;;0.56;100.00
16016;BME280;8112;53.592;10.184;2023-04-06T05:04:01;101622.75;;;0.65;100.00
16016;BME280;8112;53.592;10.184;2023-04-06T05:09:03;101621.84;;;0.73;100.00
16016;BME280;8112;53.592;10.184;2023-04-06T05:14:07;101624.41;;;0.85;100.00
16016;BME280;8112;53.592;10.184;2023-04-06T05:19:09;101625.22;;;1.01;100.00
16016;BME280;8112;53.592;10.184;2023-04-06T05:24:16;101625.16;;;1.13;100.00
16016;BME280;8112;53.592;10.184;2023-04-06T05:29:23;101624.19;;;1.30;100.00
16016;BME280;8112;53.592;10.184;2023-04-06T05:34:25;101622.31;;;1.55;100.00
16016;BME280;8112;53.592;10.184;2023-04-06T05:39:27;101624.75;;;1.76;100.00
16016;BME280;8112;53.592;10.184;2023-04-06T05:44:30;101621.94;;;1.99;100.00
16016;BME280;8112;53.592;10.184;2023-04-06T05:49:41;101629.53;;;2.24;100.00
16016;BME280;8112;53.592;10.184;2023-04-06T05:54:49;101629.50;;;2.27;100.00
16016;BME280;8112;53.592;10.184;2023-04-06T05:59:52;101624.31;;;2.25;100.00
16016;BME280;8112;53.592;10.184;2023-04-06T06:04:56;101628.69;;;2.19;100.00
16016;BME280;8112;53.592;10.184;2023-04-06T06:10:00;101619.69;;;2.54;100.00
16016;BME280;8112;53.592;10.184;2023-04-06T06:15:09;101624.47;;;2.90;100.00
16016;BME280;8112;53.592;10.184;2023-04-06T06:20:16;101619.72;;;3.20;100.00
16016;BME280;8112;53.592;10.184;2023-04-06T06:25:18;101627.06;;;3.54;100.00
16016;BME280;8112;53.592;10.184;2023-04-06T06:30:24;101621.66;;;3.66;100.00
16016;BME280;8112;53.592;10.184;2023-04-06T06:35:26;101616.72;;;4.04;100.00
16016;BME280;8112;53.592;10.184;2023-04-06T06:40:28;101620.78;;;4.18;100.00
16016;BME280;8112;53.592;10.184;2023-04-06T06:45:32;101622.03;;;4.47;100.00
16016;BME280;8112;53.592;10.184;2023-04-06T06:50:34;101621.78;;;4.59;100.00
16016;BME280;8112;53.592;10.184;2023-04-06T06:55:36;101617.78;;;4.85;100.00
16016;BME280;8112;53.592;10.184;2023-04-06T07:00:39;101621.09;;;4.93;100.00
16016;BME280;8112;53.592;10.184;2023-04-06T07:05:45;101623.25;;;5.15;100.00
16016;BME280;8112;53.592;10.184;2023-04-06T07:10:51;101618.56;;;5.30;100.00
16016;BME280;8112;53.592;10.184;2023-04-06T07:15:55;101614.56;;;5.52;100.00
16016;BME280;8112;53.592;10.184;2023-04-06T07:20:57;101607.91;;;5.77;100.00
16016;BME280;8112;53.592;10.184;2023-04-06T07:25:59;101615.22;;;5.97;100.00
16016;BME280;8112;53.592;10.184;2023-04-06T07:31:02;101607.50;;;6.27;100.00
16016;BME280;8112;53.592;10.184;2023-04-06T07:36:04;101605.19;;;6.48;100.00
16016;BME280;8112;53.592;10.184;2023-04-06T07:41:06;101605.47;;;6.70;100.00
16016;BME280;8112;53.592;10.184;2023-04-06T07:46:10;101602.06;;;6.96;100.00
16016;BME280;8112;53.592;10.184;2023-04-06T07:51:13;101589.06;;;7.22;100.00
16016;BME280;8112;53.592;10.184;2023-04-06T07:56:17;101598.00;;;7.43;100.00
16016;BME280;8112;53.592;10.184;2023-04-06T08:01:20;101594.75;;;7.63;100.00
16016;BME280;8112;53.592;10.184;2023-04-06T08:06:22;101578.84;;;7.68;100.00
16016;BME280;8112;53.592;10.184;2023-04-06T08:11:24;101589.19;;;7.99;100.00
16016;BME280;8112;53.592;10.184;2023-04-06T08:16:28;101586.63;;;8.22;100.00
16016;BME280;8112;53.592;10.184;2023-04-06T08:21:30;101593.94;;;8.39;100.00
16016;BME280;8112;53.592;10.184;2023-04-06T08:26:32;101591.94;;;8.46;100.00
16016;BME280;8112;53.592;10.184;2023-04-06T08:31:35;101575.53;;;8.64;100.00
16016;BME280;8112;53.592;10.184;2023-04-06T08:36:37;101580.50;;;8.72;100.00
16016;BME280;8112;53.592;10.184;2023-04-06T08:41:41;101579.94;;;8.88;100.00
16016;BME280;8112;53.592;10.184;2023-04-06T08:46:45;101579.69;;;8.94;100.00
16016;BME280;8112;53.592;10.184;2023-04-06T08:51:48;101582.13;;;9.21;100.00
16016;BME280;8112;53.592;10.184;2023-04-06T08:56:51;101579.94;;;9.10;100.00
16016;BME280;8112;53.592;10.184;2023-04-06T09:01:55;101577.50;;;9.27;100.00
16016;BME280;8112;53.592;10.184;2023-04-06T09:06:59;101574.25;;;9.43;100.00
16016;BME280;8112;53.592;10.184;2023-04-06T09:12:00;101565.84;;;9.55;96.76
16016;BME280;8112;53.592;10.184;2023-04-06T09:17:07;101564.81;;;9.60;87.58
16016;BME280;8112;53.592;10.184;2023-04-06T09:22:09;101562.47;;;9.74;83.54
16016;BME280;8112;53.592;10.184;2023-04-06T09:27:11;101560.47;;;9.79;82.02
16016;BME280;8112;53.592;10.184;2023-04-06T09:32:14;101546.66;;;9.74;81.37
16016;BME280;8112;53.592;10.184;2023-04-06T09:37:18;101544.81;;;9.97;83.47
16016;BME280;8112;53.592;10.184;2023-04-06T09:42:24;101553.56;;;9.97;79.41
16016;BME280;8112;53.592;10.184;2023-04-06T09:47:28;101539.06;;;10.08;79.57
16016;BME280;8112;53.592;10.184;2023-04-06T09:52:33;101535.56;;;10.28;80.02
16016;BME280;8112;53.592;10.184;2023-04-06T09:57:43;101539.31;;;10.43;76.96
16016;BME280;8112;53.592;10.184;2023-04-06T10:02:52;101534.25;;;10.77;80.59
16016;BME280;8112;53.592;10.184;2023-04-06T10:08:01;101524.78;;;10.73;79.73
16016;BME280;8112;53.592;10.184;2023-04-06T10:13:04;101521.09;;;10.94;80.90
16016;BME280;8112;53.592;10.184;2023-04-06T10:18:08;101519.25;;;10.96;78.15
16016;BME280;8112;53.592;10.184;2023-04-06T10:23:13;101523.50;;;11.18;71.45
16016;BME280;8112;53.592;10.184;2023-04-06T10:28:19;101517.06;;;11.41;71.61
16016;BME280;8112;53.592;10.184;2023-04-06T10:33:22;101523.22;;;11.77;71.82
16016;BME280;8112;53.592;10.184;2023-04-06T10:38:33;101516.28;;;11.92;69.23
16016;BME280;8112;53.592;10.184;2023-04-06T10:43:37;101512.47;;;12.32;65.09
16016;BME280;8112;53.592;10.184;2023-04-06T10:48:42;101513.19;;;12.83;65.98
16016;BME280;8112;53.592;10.184;2023-04-06T10:53:45;101509.13;;;13.24;62.44
16016;BME280;8112;53.592;10.184;2023-04-06T10:58:50;101494.63;;;13.91;59.33
16016;BME280;8112;53.592;10.184;2023-04-06T11:03:55;101495.81;;;14.44;60.68
16016;BME280;8112;53.592;10.184;2023-04-06T11:08:59;101500.34;;;14.56;57.17
16016;BME280;8112;53.592;10.184;2023-04-06T11:14:01;101483.81;;;15.07;56.01
16016;BME280;8112;53.592;10.184;2023-04-06T11:19:05;101476.06;;;15.58;55.27
16016;BME280;8112;53.592;10.184;2023-04-06T11:24:09;101481.34;;;16.35;51.42
16016;BME280;8112;53.592;10.184;2023-04-06T11:29:11;101474.88;;;16.27;51.47
16016;BME280;8112;53.592;10.184;2023-04-06T11:34:16;101479.47;;;16.12;51.07
16016;BME280;8112;53.592;10.184;2023-04-06T11:39:22;101471.47;;;17.10;48.08
16016;BME280;8112;53.592;10.184;2023-04-06T11:44:29;101467.84;;;16.63;47.60
16016;BME280;8112;53.592;10.184;2023-04-06T11:49:38;101475.28;;;16.71;46.79
16016;BME280;8112;53.592;10.184;2023-04-06T11:54:40;101464.34;;;17.11;46.57
16016;BME280;8112;53.592;10.184;2023-04-06T11:59:42;101463.75;;;17.77;45.70
16016;BME280;8112;53.592;10.184;2023-04-06T12:04:45;101461.25;;;17.29;43.78
16016;BME280;8112;53.592;10.184;2023-04-06T12:09:47;101453.81;;;17.79;41.39
16016;BME280;8112;53.592;10.184;2023-04-06T12:14:49;101446.78;;;17.67;43.47
16016;BME280;8112;53.592;10.184;2023-04-06T12:19:52;101449.56;;;17.65;42.78
16016;BME280;8112;53.592;10.184;2023-04-06T12:24:54;101447.53;;;18.03;42.39
16016;BME280;8112;53.592;10.184;2023-04-06T12:29:56;101441.50;;;18.13;42.34
16016;BME280;8112;53.592;10.184;2023-04-06T12:34:59;101448.84;;;17.75;41.34
16016;BME280;8112;53.592;10.184;2023-04-06T12:40:01;101443.63;;;17.62;39.28
16016;BME280;8112;53.592;10.184;2023-04-06T12:45:04;101431.59;;;18.36;39.03
16016;BME280;8112;53.592;10.184;2023-04-06T12:50:08;101440.22;;;18.28;42.73
16016;BME280;8112;53.592;10.184;2023-04-06T12:55:10;101432.56;;;17.32;40.47
16016;BME280;8112;53.592;10.184;2023-04-06T13:00:13;101429.81;;;17.57;40.09
16016;BME280;8112;53.592;10.184;2023-04-06T13:05:16;101423.88;;;17.53;41.67
16016;BME280;8112;53.592;10.184;2023-04-06T13:10:20;101420.84;;;17.46;41.85
16016;BME280;8112;53.592;10.184;2023-04-06T13:15:22;101416.72;;;17.88;42.34
16016;BME280;8112;53.592;10.184;2023-04-06T13:20:25;101409.88;;;18.52;40.00
16016;BME280;8112;53.592;10.184;2023-04-06T13:25:28;101403.66;;;18.84;40.75
16016;BME280;8112;53.592;10.184;2023-04-06T13:30:30;101406.50;;;19.25;39.17
16016;BME280;8112;53.592;10.184;2023-04-06T13:35:34;101395.44;;;18.76;39.51
16016;BME280;8112;53.592;10.184;2023-04-06T13:40:38;101402.44;;;18.00;39.48
16016;BME280;8112;53.592;10.184;2023-04-06T13:45:40;101395.66;;;17.62;40.49
16016;BME280;8112;53.592;10.184;2023-04-06T13:50:43;101384.25;;;17.83;39.87
16016;BME280;8112;53.592;10.184;2023-04-06T13:55:52;101383.28;;;17.84;39.59
16016;BME280;8112;53.592;10.184;2023-04-06T14:00:54;101365.84;;;17.79;40.35
16016;BME280;8112;53.592;10.184;2023-04-06T14:05:58;101373.13;;;17.66;41.33
16016;BME280;8112;53.592;10.184;2023-04-06T14:11:00;101381.22;;;17.30;40.67
16016;BME280;8112;53.592;10.184;2023-04-06T14:16:02;101376.28;;;17.60;40.22
16016;BME280;8112;53.592;10.184;2023-04-06T14:21:05;101366.69;;;17.46;41.57
16016;BME280;8112;53.592;10.184;2023-04-06T14:26:08;101369.84;;;17.85;40.16
16016;BME280;8112;53.592;10.184;2023-04-06T14:31:10;101364.88;;;17.69;41.34
16016;BME280;8112;53.592;10.184;2023-04-06T14:36:14;101371.78;;;17.37;40.49
16016;BME280;8112;53.592;10.184;2023-04-06T14:41:16;101369.56;;;16.48;42.10
16016;BME280;8112;53.592;10.184;2023-04-06T14:46:18;101356.81;;;15.92;44.27
16016;BME280;8112;53.592;10.184;2023-04-06T14:51:21;101367.66;;;15.37;42.79
16016;BME280;8112;53.592;10.184;2023-04-06T14:56:23;101362.66;;;16.46;44.02
16016;BME280;8112;53.592;10.184;2023-04-06T15:01:25;101352.66;;;16.96;43.37
16016;BME280;8112;53.592;10.184;2023-04-06T15:06:28;101352.81;;;16.35;43.89
16016;BME280;8112;53.592;10.184;2023-04-06T15:11:30;101356.50;;;15.71;44.21
16016;BME280;8112;53.592;10.184;2023-04-06T15:16:32;101349.63;;;16.05;44.63
16016;BME280;8112;53.592;10.184;2023-04-06T15:21:35;101344.63;;;17.78;42.23
16016;BME280;8112;53.592;10.184;2023-04-06T15:26:37;101347.41;;;19.18;40.59
16016;BME280;8112;53.592;10.184;2023-04-06T15:31:39;101344.25;;;19.75;39.98
16016;BME280;8112;53.592;10.184;2023-04-06T15:36:42;101347.94;;;19.12;38.73
16016;BME280;8112;53.592;10.184;2023-04-06T15:41:44;101342.56;;;17.13;40.33
16016;BME280;8112;53.592;10.184;2023-04-06T15:46:45;101339.47;;;17.42;40.31
16016;BME280;8112;53.592;10.184;2023-04-06T15:51:48;101333.69;;;19.33;39.50
16016;BME280;8112;53.592;10.184;2023-04-06T15:56:50;101337.50;;;17.33;39.88
16016;BME280;8112;53.592;10.184;2023-04-06T16:01:52;101342.47;;;14.50;43.72
16016;BME280;8112;53.592;10.184;2023-04-06T16:06:55;101347.13;;;13.92;46.52
16016;BME280;8112;53.592;10.184;2023-04-06T16:11:57;101340.69;;;13.38;48.25
16016;BME280;8112;53.592;10.184;2023-04-06T16:16:58;101350.69;;;12.88;49.67
16016;BME280;8112;53.592;10.184;2023-04-06T16:22:02;101346.59;;;12.67;51.46
16016;BME280;8112;53.592;10.184;2023-04-06T16:27:03;101350.31;;;12.49;52.09
16016;BME280;8112;53.592;10.184;2023-04-06T16:32:05;101353.63;;;12.36;52.92
16016;BME280;8112;53.592;10.184;2023-04-06T16:37:11;101346.91;;;12.31;53.12
16016;BME280;8112;53.592;10.184;2023-04-06T16:42:13;101349.75;;;12.11;54.80
16016;BME280;8112;53.592;10.184;2023-04-06T16:47:16;101349.63;;;11.97;54.22
16016;BME280;8112;53.592;10.184;2023-04-06T16:52:19;101349.91;;;11.59;56.17
16016;BME280;8112;53.592;10.184;2023-04-06T16:57:21;101345.28;;;11.46;57.73
16016;BME280;8112;53.592;10.184;2023-04-06T17:02:24;101341.59;;;11.33;57.87
16016;BME280;8112;53.592;10.184;2023-04-06T17:07:27;101348.28;;;11.22;58.97
16016;BME280;8112;53.592;10.184;2023-04-06T17:12:31;101354.59;;;11.02;60.30
16016;BME280;8112;53.592;10.184;2023-04-06T17:17:33;101352.03;;;10.65;62.92
16016;BME280;8112;53.592;10.184;2023-04-06T17:22:36;101356.19;;;10.52;66.09
16016;BME280;8112;53.592;10.184;2023-04-06T17:27:38;101354.34;;;10.35;69.10
16016;BME280;8112;53.592;10.184;2023-04-06T17:32:39;101361.41;;;10.15;70.71
16016;BME280;8112;53.592;10.184;2023-04-06T17:37:43;101366.53;;;9.99;73.20
16016;BME280;8112;53.592;10.184;2023-04-06T17:42:45;101373.78;;;9.75;76.34
16016;BME280;8112;53.592;10.184;2023-04-06T17:47:46;101375.72;;;9.50;78.78
16016;BME280;8112;53.592;10.184;2023-04-06T17:52:49;101391.97;;;9.39;80.54
16016;BME280;8112;53.592;10.184;2023-04-06T17:57:51;101388.25;;;9.24;83.65
16016;BME280;8112;53.592;10.184;2023-04-06T18:02:53;101400.34;;;9.08;84.58
16016;BME280;8112;53.592;10.184;2023-04-06T18:07:56;101400.75;;;8.98;86.49
16016;BME280;8112;53.592;10.184;2023-04-06T18:12:58;101410.09;;;8.83;88.43
16016;BME280;8112;53.592;10.184;2023-04-06T18:18:00;101403.81;;;8.65;89.34
16016;BME280;8112;53.592;10.184;2023-04-06T18:23:03;101405.88;;;8.57;90.97
16016;BME280;8112;53.592;10.184;2023-04-06T18:28:07;101414.16;;;8.46;92.42
16016;BME280;8112;53.592;10.184;2023-04-06T18:33:09;101418.09;;;8.36;94.45
16016;BME280;8112;53.592;10.184;2023-04-06T18:38:12;101424.41;;;8.30;95.20
16016;BME280;8112;53.592;10.184;2023-04-06T18:43:13;101422.25;;;8.18;96.65
16016;BME280;8112;53.592;10.184;2023-04-06T18:48:15;101419.88;;;8.11;97.75
16016;BME280;8112;53.592;10.184;2023-04-06T18:53:18;101425.44;;;8.02;98.42
16016;BME280;8112;53.592;10.184;2023-04-06T18:58:20;101429.47;;;7.89;99.74
16016;BME280;8112;53.592;10.184;2023-04-06T19:03:22;101428.06;;;7.78;100.00
16016;BME280;8112;53.592;10.184;2023-04-06T19:08:25;101435.09;;;7.78;100.00
16016;BME280;8112;53.592;10.184;2023-04-06T19:13:27;101438.19;;;7.64;100.00
16016;BME280;8112;53.592;10.184;2023-04-06T19:18:28;101435.72;;;7.59;100.00
16016;BME280;8112;53.592;10.184;2023-04-06T19:23:32;101436.94;;;7.50;100.00
16016;BME280;8112;53.592;10.184;2023-04-06T19:28:34;101441.69;;;7.39;100.00
16016;BME280;8112;53.592;10.184;2023-04-06T19:33:36;101444.41;;;7.36;100.00
16016;BME280;8112;53.592;10.184;2023-04-06T19:38:40;101444.53;;;7.33;100.00
16016;BME280;8112;53.592;10.184;2023-04-06T19:43:41;101447.22;;;7.30;100.00
16016;BME280;8112;53.592;10.184;2023-04-06T19:48:43;101451.09;;;7.19;100.00
16016;BME280;8112;53.592;10.184;2023-04-06T19:53:46;101451.38;;;7.10;100.00
16016;BME280;8112;53.592;10.184;2023-04-06T19:58:48;101455.81;;;7.08;100.00
16016;BME280;8112;53.592;10.184;2023-04-06T20:03:50;101455.22;;;6.99;100.00
16016;BME280;8112;53.592;10.184;2023-04-06T20:08:53;101457.06;;;6.96;100.00
16016;BME280;8112;53.592;10.184;2023-04-06T20:13:55;101456.41;;;6.89;100.00
16016;BME280;8112;53.592;10.184;2023-04-06T20:18:56;101455.84;;;6.79;100.00
16016;BME280;8112;53.592;10.184;2023-04-06T20:24:00;101449.03;;;6.74;100.00
16016;BME280;8112;53.592;10.184;2023-04-06T20:29:01;101453.75;;;6.62;100.00
16016;BME280;8112;53.592;10.184;2023-04-06T20:34:03;101459.91;;;6.61;100.00
16016;BME280;8112;53.592;10.184;2023-04-06T20:39:06;101459.28;;;6.53;100.00
16016;BME280;8112;53.592;10.184;2023-04-06T20:44:08;101453.34;;;6.46;100.00
16016;BME280;8112;53.592;10.184;2023-04-06T20:49:10;101446.50;;;6.42;100.00
16016;BME280;8112;53.592;10.184;2023-04-06T20:54:13;101450.16;;;6.36;100.00
16016;BME280;8112;53.592;10.184;2023-04-06T20:59:15;101452.84;;;6.35;100.00
16016;BME280;8112;53.592;10.184;2023-04-06T21:04:17;101448.72;;;6.26;100.00
16016;BME280;8112;53.592;10.184;2023-04-06T21:09:22;101459.47;;;6.17;100.00
16016;BME280;8112;53.592;10.184;2023-04-06T21:14:27;101452.69;;;6.09;100.00
16016;BME280;8112;53.592;10.184;2023-04-06T21:19:29;101453.72;;;6.04;100.00
16016;BME280;8112;53.592;10.184;2023-04-06T21:24:32;101452.16;;;5.96;100.00
16016;BME280;8112;53.592;10.184;2023-04-06T21:29:33;101452.38;;;5.89;100.00
16016;BME280;8112;53.592;10.184;2023-04-06T21:34:35;101449.91;;;5.82;100.00
16016;BME280;8112;53.592;10.184;2023-04-06T21:39:38;101451.78;;;5.77;100.00
16016;BME280;8112;53.592;10.184;2023-04-06T21:44:40;101448.38;;;5.75;100.00
16016;BME280;8112;53.592;10.184;2023-04-06T21:49:41;101452.78;;;5.73;100.00
16016;BME280;8112;53.592;10.184;2023-04-06T21:54:44;101448.69;;;5.63;100.00
16016;BME280;8112;53.592;10.184;2023-04-06T21:59:46;101449.47;;;5.66;100.00
16016;BME280;8112;53.592;10.184;2023-04-06T22:04:48;101444.53;;;5.55;100.00
16016;BME280;8112;53.592;10.184;2023-04-06T22:09:51;101443.81;;;5.50;100.00
16016;BME280;8112;53.592;10.184;2023-04-06T22:14:53;101444.75;;;5.48;100.00
16016;BME280;8112;53.592;10.184;2023-04-06T22:19:55;101444.03;;;5.41;100.00
16016;BME280;8112;53.592;10.184;2023-04-06T22:24:58;101443.25;;;5.37;100.00
16016;BME280;8112;53.592;10.184;2023-04-06T22:30:00;101443.31;;;5.36;100.00
16016;BME280;8112;53.592;10.184;2023-04-06T22:35:02;101443.25;;;5.37;100.00
16016;BME280;8112;53.592;10.184;2023-04-06T22:40:06;101439.16;;;5.27;100.00
16016;BME280;8112;53.592;10.184;2023-04-06T22:45:08;101444.59;;;5.19;100.00
16016;BME280;8112;53.592;10.184;2023-04-06T22:50:10;101450.75;;;5.17;100.00
16016;BME280;8112;53.592;10.184;2023-04-06T22:55:13;101449.13;;;5.11;100.00
16016;BME280;8112;53.592;10.184;2023-04-06T23:00:16;101457.03;;;5.09;100.00
16016;BME280;8112;53.592;10.184;2023-04-06T23:05:18;101462.16;;;5.14;100.00
16016;BME280;8112;53.592;10.184;2023-04-06T23:10:21;101457.06;;;5.08;100.00
16016;BME280;8112;53.592;10.184;2023-04-06T23:15:22;101459.94;;;4.97;100.00
16016;BME280;8112;53.592;10.184;2023-04-06T23:20:24;101463.44;;;4.96;100.00
16016;BME280;8112;53.592;10.184;2023-04-06T23:25:27;101470.47;;;4.92;100.00
16016;BME280;8112;53.592;10.184;2023-04-06T23:30:29;101467.09;;;4.89;100.00
16016;BME280;8112;53.592;10.184;2023-04-06T23:35:31;101465.47;;;4.83;100.00
16016;BME280;8112;53.592;10.184;2023-04-06T23:40:36;101468.16;;;4.80;100.00
16016;BME280;8112;53.592;10.184;2023-04-06T23:45:38;101461.22;;;4.79;100.00
16016;BME280;8112;53.592;10.184;2023-04-06T23:50:41;101475.19;;;4.76;100.00
16016;BME280;8112;53.592;10.184;2023-04-06T23:55:44;101476.13;;;4.74;100.00
